Baton Rouge Metropolitan, Ryan Field
KBTR : rendu visible

Aérodrome :











RETROUVEZ-NOUS SUR...

 
LOGIN :

S'inscrire | Disclaimer

   EN    FR    IT 

 









Légende :    VFR   VFR Marginal   IFR   IFR Intensif   IFR Très Intensif
Visi : 
Plafond : 
>= 8 km
>= 3000ft
5 à 8 km
1000 à 3000 ft
1500m à 5 km
500 à 1000 ft
800 à 1500m
200 à 500 ft
< 800m
< 200 ft
Symboles :   Orages  Brouillard  Fortes neiges  Fortes précipitations  Vent > 20 kt






- Altitude de l'aérodrome : 70 ft
- Code IATA : BTR


KBTR - Baton Rouge Metropolitan, Ryan Field

DERNIER METAR :
  • 232153Z 14005KT 10SM BKN017 17/14 A2988 RMK AO2 SLP118 T01720144

METARs EXPIRÉS :
  • 232100Z 15008KT 10SM FEW012 BKN019 OVC025 17/14 A2989 RMK AO2 T01720144
  • 232053Z 16007KT 10SM OVC009 17/14 A2989 RMK AO2 SLP119 T01720144 56018
  • 231953Z 14007KT 10SM OVC009 16/14 A2989 RMK AO2 SLP120 T01610139

TAF KBTR
Valide du 23 à 22h jusqu'au 24 à 18h UTC


232207Z 2322/2418 22005KT P6SM BKN015
FM240100 31005KT P6SM BKN030
FM241100 VRB03KT P6SM SCT015



MET'MAP, la Météo Aéronautique d'un coup d'oeil ! - Copyright ORBIFLY Décembre 2007 - Disclaimer

ORBIFLY MET'MAP TEAM :

Programmation & Développement : Alexandra Zaïnal
Sur une idée originale de : Baudouin d'Aumeries
Assistance à la programmation : Marc-Olivier Méhu
Soutien technique & logistique : Manuel Goepfert

Contact : metmap@orbifly.com




SOURCES & CREDITS :

   NOAA       Earth
Advisory